sensor_id;sensor_type;location;lat;lon;timestamp;P1;durP1;ratioP1;P2;durP2;ratioP2
34489;SDS011;20730;49.372;7.324;2023-12-07T00:02:03;42.47;;;21.48;;
34489;SDS011;20730;49.372;7.324;2023-12-07T00:04:30;46.25;;;22.27;;
34489;SDS011;20730;49.372;7.324;2023-12-07T00:06:56;43.90;;;20.83;;
34489;SDS011;20730;49.372;7.324;2023-12-07T00:09:23;46.40;;;21.05;;
34489;SDS011;20730;49.372;7.324;2023-12-07T00:11:50;42.78;;;21.52;;
34489;SDS011;20730;49.372;7.324;2023-12-07T00:14:17;40.55;;;20.92;;
34489;SDS011;20730;49.372;7.324;2023-12-07T00:16:43;43.78;;;21.10;;
34489;SDS011;20730;49.372;7.324;2023-12-07T00:19:10;38.88;;;21.17;;
34489;SDS011;20730;49.372;7.324;2023-12-07T00:21:37;44.03;;;20.55;;
34489;SDS011;20730;49.372;7.324;2023-12-07T00:24:03;40.28;;;20.20;;
34489;SDS011;20730;49.372;7.324;2023-12-07T00:26:30;44.65;;;20.88;;
34489;SDS011;20730;49.372;7.324;2023-12-07T00:28:57;40.60;;;20.02;;
34489;SDS011;20730;49.372;7.324;2023-12-07T00:31:23;43.05;;;21.00;;
34489;SDS011;20730;49.372;7.324;2023-12-07T00:33:50;37.63;;;20.65;;
34489;SDS011;20730;49.372;7.324;2023-12-07T00:36:17;43.65;;;19.77;;
34489;SDS011;20730;49.372;7.324;2023-12-07T00:38:44;39.67;;;19.55;;
34489;SDS011;20730;49.372;7.324;2023-12-07T00:41:12;43.63;;;19.90;;
34489;SDS011;20730;49.372;7.324;2023-12-07T00:43:38;41.72;;;20.80;;
34489;SDS011;20730;49.372;7.324;2023-12-07T00:46:06;39.80;;;20.73;;
34489;SDS011;20730;49.372;7.324;2023-12-07T00:48:33;42.13;;;20.30;;
34489;SDS011;20730;49.372;7.324;2023-12-07T00:51:00;41.08;;;20.58;;
34489;SDS011;20730;49.372;7.324;2023-12-07T00:53:27;43.78;;;20.58;;
34489;SDS011;20730;49.372;7.324;2023-12-07T00:55:53;44.45;;;20.00;;
34489;SDS011;20730;49.372;7.324;2023-12-07T00:58:20;43.67;;;20.95;;
34489;SDS011;20730;49.372;7.324;2023-12-07T01:00:47;44.90;;;20.98;;
34489;SDS011;20730;49.372;7.324;2023-12-07T01:03:14;35.92;;;18.98;;
34489;SDS011;20730;49.372;7.324;2023-12-07T01:05:40;41.63;;;18.90;;
34489;SDS011;20730;49.372;7.324;2023-12-07T01:08:07;36.00;;;18.30;;
34489;SDS011;20730;49.372;7.324;2023-12-07T01:10:34;40.90;;;18.63;;
34489;SDS011;20730;49.372;7.324;2023-12-07T01:13:01;29.17;;;15.60;;
34489;SDS011;20730;49.372;7.324;2023-12-07T01:15:27;35.90;;;15.85;;
34489;SDS011;20730;49.372;7.324;2023-12-07T01:17:54;35.20;;;16.60;;
34489;SDS011;20730;49.372;7.324;2023-12-07T01:20:21;34.38;;;17.45;;
34489;SDS011;20730;49.372;7.324;2023-12-07T01:22:47;36.60;;;17.25;;
34489;SDS011;20730;49.372;7.324;2023-12-07T01:25:15;34.40;;;18.05;;
34489;SDS011;20730;49.372;7.324;2023-12-07T01:27:47;35.15;;;17.38;;
34489;SDS011;20730;49.372;7.324;2023-12-07T01:30:14;49.97;;;19.02;;
34489;SDS011;20730;49.372;7.324;2023-12-07T01:32:41;34.50;;;18.17;;
34489;SDS011;20730;49.372;7.324;2023-12-07T01:35:08;36.65;;;19.17;;
34489;SDS011;20730;49.372;7.324;2023-12-07T01:37:35;34.95;;;19.08;;
34489;SDS011;20730;49.372;7.324;2023-12-07T01:40:02;44.13;;;21.08;;
34489;SDS011;20730;49.372;7.324;2023-12-07T01:42:32;43.63;;;20.88;;
34489;SDS011;20730;49.372;7.324;2023-12-07T01:44:59;44.83;;;20.42;;
34489;SDS011;20730;49.372;7.324;2023-12-07T01:47:25;48.65;;;18.98;;
34489;SDS011;20730;49.372;7.324;2023-12-07T01:49:52;38.45;;;18.10;;
34489;SDS011;20730;49.372;7.324;2023-12-07T01:52:20;33.10;;;17.20;;
34489;SDS011;20730;49.372;7.324;2023-12-07T01:54:48;33.25;;;17.13;;
34489;SDS011;20730;49.372;7.324;2023-12-07T01:57:15;35.85;;;17.17;;
34489;SDS011;20730;49.372;7.324;2023-12-07T01:59:42;38.92;;;17.17;;
34489;SDS011;20730;49.372;7.324;2023-12-07T02:02:09;33.85;;;17.42;;
34489;SDS011;20730;49.372;7.324;2023-12-07T02:04:35;39.42;;;17.92;;
34489;SDS011;20730;49.372;7.324;2023-12-07T02:07:02;37.20;;;17.90;;
34489;SDS011;20730;49.372;7.324;2023-12-07T02:09:30;36.33;;;17.33;;
34489;SDS011;20730;49.372;7.324;2023-12-07T02:11:58;53.53;;;19.25;;
34489;SDS011;20730;49.372;7.324;2023-12-07T02:14:26;40.10;;;18.83;;
34489;SDS011;20730;49.372;7.324;2023-12-07T02:17:13;36.05;;;18.13;;
34489;SDS011;20730;49.372;7.324;2023-12-07T02:19:47;43.50;;;19.15;;
34489;SDS011;20730;49.372;7.324;2023-12-07T02:22:38;39.88;;;18.55;;
34489;SDS011;20730;49.372;7.324;2023-12-07T02:25:07;43.38;;;19.77;;
34489;SDS011;20730;49.372;7.324;2023-12-07T02:27:40;41.05;;;20.13;;
34489;SDS011;20730;49.372;7.324;2023-12-07T02:30:08;48.25;;;20.42;;
34489;SDS011;20730;49.372;7.324;2023-12-07T02:32:36;45.28;;;20.65;;
34489;SDS011;20730;49.372;7.324;2023-12-07T02:35:04;50.80;;;20.70;;
34489;SDS011;20730;49.372;7.324;2023-12-07T02:37:40;41.60;;;20.10;;
34489;SDS011;20730;49.372;7.324;2023-12-07T02:40:09;41.33;;;19.60;;
34489;SDS011;20730;49.372;7.324;2023-12-07T02:42:38;41.78;;;19.98;;
34489;SDS011;20730;49.372;7.324;2023-12-07T02:45:07;41.88;;;20.63;;
34489;SDS011;20730;49.372;7.324;2023-12-07T02:47:34;46.90;;;20.52;;
34489;SDS011;20730;49.372;7.324;2023-12-07T02:50:02;43.50;;;20.52;;
34489;SDS011;20730;49.372;7.324;2023-12-07T02:52:29;48.97;;;21.02;;
34489;SDS011;20730;49.372;7.324;2023-12-07T02:54:56;40.70;;;20.48;;
34489;SDS011;20730;49.372;7.324;2023-12-07T02:57:23;45.28;;;19.90;;
34489;SDS011;20730;49.372;7.324;2023-12-07T02:59:50;40.53;;;20.55;;
34489;SDS011;20730;49.372;7.324;2023-12-07T03:02:16;42.70;;;20.73;;
34489;SDS011;20730;49.372;7.324;2023-12-07T03:04:43;39.65;;;19.70;;
34489;SDS011;20730;49.372;7.324;2023-12-07T03:07:09;34.50;;;19.30;;
34489;SDS011;20730;49.372;7.324;2023-12-07T03:09:36;35.70;;;19.15;;
34489;SDS011;20730;49.372;7.324;2023-12-07T03:12:03;39.53;;;19.42;;
34489;SDS011;20730;49.372;7.324;2023-12-07T03:14:30;32.63;;;17.92;;
34489;SDS011;20730;49.372;7.324;2023-12-07T03:16:56;33.70;;;18.50;;
34489;SDS011;20730;49.372;7.324;2023-12-07T03:19:23;42.10;;;18.85;;
34489;SDS011;20730;49.372;7.324;2023-12-07T03:21:50;33.15;;;18.70;;
34489;SDS011;20730;49.372;7.324;2023-12-07T03:24:17;31.88;;;17.05;;
34489;SDS011;20730;49.372;7.324;2023-12-07T03:26:43;33.40;;;17.20;;
34489;SDS011;20730;49.372;7.324;2023-12-07T03:29:10;30.88;;;16.52;;
34489;SDS011;20730;49.372;7.324;2023-12-07T03:31:36;30.17;;;16.65;;
34489;SDS011;20730;49.372;7.324;2023-12-07T03:34:03;31.23;;;16.65;;
34489;SDS011;20730;49.372;7.324;2023-12-07T03:36:32;27.25;;;15.57;;
34489;SDS011;20730;49.372;7.324;2023-12-07T03:39:00;31.75;;;16.17;;
34489;SDS011;20730;49.372;7.324;2023-12-07T03:41:27;32.42;;;15.15;;
34489;SDS011;20730;49.372;7.324;2023-12-07T03:43:54;27.25;;;15.93;;
34489;SDS011;20730;49.372;7.324;2023-12-07T03:46:20;28.75;;;16.40;;
34489;SDS011;20730;49.372;7.324;2023-12-07T03:48:47;27.88;;;15.93;;
34489;SDS011;20730;49.372;7.324;2023-12-07T03:51:14;26.38;;;14.50;;
34489;SDS011;20730;49.372;7.324;2023-12-07T03:53:43;25.77;;;14.70;;
34489;SDS011;20730;49.372;7.324;2023-12-07T03:56:09;23.58;;;14.15;;
34489;SDS011;20730;49.372;7.324;2023-12-07T03:58:36;23.70;;;14.95;;
34489;SDS011;20730;49.372;7.324;2023-12-07T04:01:03;26.40;;;14.98;;
34489;SDS011;20730;49.372;7.324;2023-12-07T04:03:30;24.00;;;14.60;;
34489;SDS011;20730;49.372;7.324;2023-12-07T04:05:57;23.08;;;13.30;;
34489;SDS011;20730;49.372;7.324;2023-12-07T04:08:23;18.60;;;12.35;;
34489;SDS011;20730;49.372;7.324;2023-12-07T04:10:50;22.95;;;13.20;;
34489;SDS011;20730;49.372;7.324;2023-12-07T04:13:17;21.45;;;12.85;;
34489;SDS011;20730;49.372;7.324;2023-12-07T04:15:44;33.13;;;14.15;;
34489;SDS011;20730;49.372;7.324;2023-12-07T04:18:11;20.70;;;13.68;;
34489;SDS011;20730;49.372;7.324;2023-12-07T04:20:38;22.30;;;14.52;;
34489;SDS011;20730;49.372;7.324;2023-12-07T04:23:05;28.67;;;15.25;;
34489;SDS011;20730;49.372;7.324;2023-12-07T04:25:31;26.42;;;15.07;;
34489;SDS011;20730;49.372;7.324;2023-12-07T04:27:58;24.23;;;14.57;;
34489;SDS011;20730;49.372;7.324;2023-12-07T04:30:25;30.05;;;15.57;;
34489;SDS011;20730;49.372;7.324;2023-12-07T04:32:52;27.63;;;15.32;;
34489;SDS011;20730;49.372;7.324;2023-12-07T04:35:19;26.52;;;15.55;;
34489;SDS011;20730;49.372;7.324;2023-12-07T04:37:46;30.83;;;17.20;;
34489;SDS011;20730;49.372;7.324;2023-12-07T04:40:12;25.67;;;15.18;;
34489;SDS011;20730;49.372;7.324;2023-12-07T04:42:39;27.08;;;16.05;;
34489;SDS011;20730;49.372;7.324;2023-12-07T04:45:06;30.20;;;15.75;;
34489;SDS011;20730;49.372;7.324;2023-12-07T04:47:33;27.30;;;17.02;;
34489;SDS011;20730;49.372;7.324;2023-12-07T04:50:00;32.40;;;18.65;;
34489;SDS011;20730;49.372;7.324;2023-12-07T04:52:27;33.15;;;17.08;;
34489;SDS011;20730;49.372;7.324;2023-12-07T04:54:54;28.73;;;16.05;;
34489;SDS011;20730;49.372;7.324;2023-12-07T04:57:20;27.67;;;15.68;;
34489;SDS011;20730;49.372;7.324;2023-12-07T04:59:47;28.73;;;15.70;;
34489;SDS011;20730;49.372;7.324;2023-12-07T05:02:15;29.80;;;16.08;;
34489;SDS011;20730;49.372;7.324;2023-12-07T05:04:43;27.05;;;15.77;;
34489;SDS011;20730;49.372;7.324;2023-12-07T05:07:11;31.00;;;15.93;;
34489;SDS011;20730;49.372;7.324;2023-12-07T05:09:39;29.40;;;16.08;;
34489;SDS011;20730;49.372;7.324;2023-12-07T05:12:06;25.80;;;14.68;;
34489;SDS011;20730;49.372;7.324;2023-12-07T05:14:33;25.15;;;15.45;;
34489;SDS011;20730;49.372;7.324;2023-12-07T05:17:01;27.48;;;15.27;;
34489;SDS011;20730;49.372;7.324;2023-12-07T05:19:28;28.92;;;15.07;;
34489;SDS011;20730;49.372;7.324;2023-12-07T05:21:54;24.77;;;14.90;;
34489;SDS011;20730;49.372;7.324;2023-12-07T05:24:21;28.27;;;15.20;;
34489;SDS011;20730;49.372;7.324;2023-12-07T05:26:48;28.00;;;14.15;;
34489;SDS011;20730;49.372;7.324;2023-12-07T05:29:15;27.38;;;15.52;;
34489;SDS011;20730;49.372;7.324;2023-12-07T05:31:42;28.05;;;15.30;;
34489;SDS011;20730;49.372;7.324;2023-12-07T05:34:08;28.35;;;16.85;;
34489;SDS011;20730;49.372;7.324;2023-12-07T05:36:35;30.88;;;17.48;;
34489;SDS011;20730;49.372;7.324;2023-12-07T05:39:02;26.80;;;15.10;;
34489;SDS011;20730;49.372;7.324;2023-12-07T05:41:29;24.80;;;13.65;;
34489;SDS011;20730;49.372;7.324;2023-12-07T05:43:55;23.02;;;13.85;;
34489;SDS011;20730;49.372;7.324;2023-12-07T05:46:22;30.15;;;14.40;;
34489;SDS011;20730;49.372;7.324;2023-12-07T05:48:49;25.85;;;14.40;;
34489;SDS011;20730;49.372;7.324;2023-12-07T05:51:18;22.08;;;14.10;;
34489;SDS011;20730;49.372;7.324;2023-12-07T05:53:47;24.05;;;13.40;;
34489;SDS011;20730;49.372;7.324;2023-12-07T05:56:17;25.15;;;14.10;;
34489;SDS011;20730;49.372;7.324;2023-12-07T05:58:45;26.02;;;14.68;;
34489;SDS011;20730;49.372;7.324;2023-12-07T06:01:12;23.50;;;14.52;;
34489;SDS011;20730;49.372;7.324;2023-12-07T06:03:39;30.60;;;15.68;;
34489;SDS011;20730;49.372;7.324;2023-12-07T06:06:07;28.63;;;15.05;;
34489;SDS011;20730;49.372;7.324;2023-12-07T06:08:34;32.38;;;17.08;;
34489;SDS011;20730;49.372;7.324;2023-12-07T06:11:00;42.75;;;15.10;;
34489;SDS011;20730;49.372;7.324;2023-12-07T06:13:28;31.15;;;14.45;;
34489;SDS011;20730;49.372;7.324;2023-12-07T06:15:54;29.52;;;15.65;;
34489;SDS011;20730;49.372;7.324;2023-12-07T06:18:21;29.92;;;16.10;;
34489;SDS011;20730;49.372;7.324;2023-12-07T06:20:48;34.30;;;16.15;;
34489;SDS011;20730;49.372;7.324;2023-12-07T06:23:14;35.47;;;15.40;;
34489;SDS011;20730;49.372;7.324;2023-12-07T06:25:41;31.45;;;16.00;;
34489;SDS011;20730;49.372;7.324;2023-12-07T06:28:08;33.83;;;15.23;;
34489;SDS011;20730;49.372;7.324;2023-12-07T06:30:36;44.00;;;16.08;;
34489;SDS011;20730;49.372;7.324;2023-12-07T06:33:03;39.97;;;16.85;;
34489;SDS011;20730;49.372;7.324;2023-12-07T06:35:30;39.60;;;14.88;;
34489;SDS011;20730;49.372;7.324;2023-12-07T06:37:57;33.25;;;15.93;;
34489;SDS011;20730;49.372;7.324;2023-12-07T06:40:23;46.05;;;20.38;;
34489;SDS011;20730;49.372;7.324;2023-12-07T06:42:50;37.25;;;16.27;;
34489;SDS011;20730;49.372;7.324;2023-12-07T06:45:17;39.58;;;17.30;;
34489;SDS011;20730;49.372;7.324;2023-12-07T06:47:43;40.42;;;15.82;;
34489;SDS011;20730;49.372;7.324;2023-12-07T06:50:10;95.47;;;15.35;;
34489;SDS011;20730;49.372;7.324;2023-12-07T06:52:37;43.05;;;15.00;;
34489;SDS011;20730;49.372;7.324;2023-12-07T06:55:04;46.00;;;15.93;;
34489;SDS011;20730;49.372;7.324;2023-12-07T06:57:32;43.47;;;16.00;;
34489;SDS011;20730;49.372;7.324;2023-12-07T06:59:58;70.15;;;14.63;;
34489;SDS011;20730;49.372;7.324;2023-12-07T07:02:25;234.35;;;17.88;;
34489;SDS011;20730;49.372;7.324;2023-12-07T07:04:52;117.35;;;14.73;;
34489;SDS011;20730;49.372;7.324;2023-12-07T07:07:19;103.57;;;14.98;;
34489;SDS011;20730;49.372;7.324;2023-12-07T07:09:45;138.57;;;16.40;;
34489;SDS011;20730;49.372;7.324;2023-12-07T07:12:12;158.70;;;16.25;;
34489;SDS011;20730;49.372;7.324;2023-12-07T07:14:39;309.67;;;19.58;;
34489;SDS011;20730;49.372;7.324;2023-12-07T07:17:06;366.42;;;20.13;;
34489;SDS011;20730;49.372;7.324;2023-12-07T07:19:33;73.38;;;16.70;;
34489;SDS011;20730;49.372;7.324;2023-12-07T07:21:59;85.07;;;17.30;;
34489;SDS011;20730;49.372;7.324;2023-12-07T07:24:26;172.18;;;18.38;;
34489;SDS011;20730;49.372;7.324;2023-12-07T07:26:54;113.43;;;17.92;;
34489;SDS011;20730;49.372;7.324;2023-12-07T07:29:21;68.63;;;18.00;;
34489;SDS011;20730;49.372;7.324;2023-12-07T07:31:47;94.72;;;17.63;;
34489;SDS011;20730;49.372;7.324;2023-12-07T07:34:14;73.93;;;18.98;;
34489;SDS011;20730;49.372;7.324;2023-12-07T07:36:41;317.02;;;22.15;;
34489;SDS011;20730;49.372;7.324;2023-12-07T07:39:08;260.10;;;22.70;;
34489;SDS011;20730;49.372;7.324;2023-12-07T07:41:35;109.53;;;20.23;;
34489;SDS011;20730;49.372;7.324;2023-12-07T07:44:01;72.63;;;19.33;;
34489;SDS011;20730;49.372;7.324;2023-12-07T07:46:30;86.18;;;21.45;;
34489;SDS011;20730;49.372;7.324;2023-12-07T07:48:57;163.00;;;20.90;;
34489;SDS011;20730;49.372;7.324;2023-12-07T07:51:24;52.92;;;19.48;;
34489;SDS011;20730;49.372;7.324;2023-12-07T07:53:50;132.27;;;20.40;;
34489;SDS011;20730;49.372;7.324;2023-12-07T07:56:17;76.30;;;18.67;;
34489;SDS011;20730;49.372;7.324;2023-12-07T07:58:43;76.32;;;18.63;;
34489;SDS011;20730;49.372;7.324;2023-12-07T08:01:10;71.70;;;18.20;;
34489;SDS011;20730;49.372;7.324;2023-12-07T08:03:40;55.95;;;16.85;;
34489;SDS011;20730;49.372;7.324;2023-12-07T08:06:08;57.28;;;16.70;;
34489;SDS011;20730;49.372;7.324;2023-12-07T08:08:34;115.57;;;18.23;;
34489;SDS011;20730;49.372;7.324;2023-12-07T08:11:01;103.25;;;17.58;;
34489;SDS011;20730;49.372;7.324;2023-12-07T08:13:28;130.85;;;18.35;;
34489;SDS011;20730;49.372;7.324;2023-12-07T08:15:55;174.95;;;16.52;;
34489;SDS011;20730;49.372;7.324;2023-12-07T08:18:24;128.20;;;16.33;;
34489;SDS011;20730;49.372;7.324;2023-12-07T08:20:51;107.32;;;16.52;;
34489;SDS011;20730;49.372;7.324;2023-12-07T08:23:18;386.88;;;20.15;;
34489;SDS011;20730;49.372;7.324;2023-12-07T08:25:44;128.60;;;16.15;;
34489;SDS011;20730;49.372;7.324;2023-12-07T08:28:11;86.20;;;15.25;;
34489;SDS011;20730;49.372;7.324;2023-12-07T08:30:38;267.73;;;16.77;;
34489;SDS011;20730;49.372;7.324;2023-12-07T08:33:05;151.75;;;15.95;;
34489;SDS011;20730;49.372;7.324;2023-12-07T08:35:31;424.75;;;20.02;;
34489;SDS011;20730;49.372;7.324;2023-12-07T08:37:58;502.90;;;28.33;;
34489;SDS011;20730;49.372;7.324;2023-12-07T08:40:25;404.52;;;19.13;;
34489;SDS011;20730;49.372;7.324;2023-12-07T08:42:51;193.55;;;17.15;;
34489;SDS011;20730;49.372;7.324;2023-12-07T08:45:20;389.50;;;21.20;;
34489;SDS011;20730;49.372;7.324;2023-12-07T08:47:47;95.13;;;16.58;;
34489;SDS011;20730;49.372;7.324;2023-12-07T08:50:14;126.10;;;17.95;;
34489;SDS011;20730;49.372;7.324;2023-12-07T08:52:40;179.55;;;18.27;;
34489;SDS011;20730;49.372;7.324;2023-12-07T08:55:16;208.70;;;19.23;;
34489;SDS011;20730;49.372;7.324;2023-12-07T08:57:43;141.18;;;18.00;;
34489;SDS011;20730;49.372;7.324;2023-12-07T09:00:10;307.75;;;20.05;;
34489;SDS011;20730;49.372;7.324;2023-12-07T09:02:39;329.40;;;20.88;;
34489;SDS011;20730;49.372;7.324;2023-12-07T09:05:13;319.52;;;20.33;;
34489;SDS011;20730;49.372;7.324;2023-12-07T09:07:40;356.83;;;22.38;;
34489;SDS011;20730;49.372;7.324;2023-12-07T09:10:07;211.05;;;18.35;;
34489;SDS011;20730;49.372;7.324;2023-12-07T09:12:35;180.00;;;18.88;;
34489;SDS011;20730;49.372;7.324;2023-12-07T09:15:05;124.38;;;19.10;;
34489;SDS011;20730;49.372;7.324;2023-12-07T09:17:34;142.20;;;18.45;;
34489;SDS011;20730;49.372;7.324;2023-12-07T09:20:01;226.90;;;19.65;;
34489;SDS011;20730;49.372;7.324;2023-12-07T09:22:28;82.18;;;16.75;;
34489;SDS011;20730;49.372;7.324;2023-12-07T09:25:03;53.05;;;16.52;;
34489;SDS011;20730;49.372;7.324;2023-12-07T09:27:31;101.03;;;17.25;;
34489;SDS011;20730;49.372;7.324;2023-12-07T09:30:00;356.40;;;21.58;;
34489;SDS011;20730;49.372;7.324;2023-12-07T09:32:27;131.80;;;18.52;;
34489;SDS011;20730;49.372;7.324;2023-12-07T09:35:03;79.35;;;16.65;;
34489;SDS011;20730;49.372;7.324;2023-12-07T09:37:31;45.42;;;17.42;;
34489;SDS011;20730;49.372;7.324;2023-12-07T09:39:57;37.08;;;16.92;;
34489;SDS011;20730;49.372;7.324;2023-12-07T09:42:25;30.05;;;15.52;;
34489;SDS011;20730;49.372;7.324;2023-12-07T09:45:01;28.20;;;13.82;;
34489;SDS011;20730;49.372;7.324;2023-12-07T09:47:29;30.70;;;14.18;;
34489;SDS011;20730;49.372;7.324;2023-12-07T09:50:03;26.85;;;14.98;;
34489;SDS011;20730;49.372;7.324;2023-12-07T09:52:32;25.70;;;14.40;;
34489;SDS011;20730;49.372;7.324;2023-12-07T09:54:58;31.05;;;13.90;;
34489;SDS011;20730;49.372;7.324;2023-12-07T09:57:26;27.95;;;13.55;;
34489;SDS011;20730;49.372;7.324;2023-12-07T10:02:22;103.45;;;18.98;;
34489;SDS011;20730;49.372;7.324;2023-12-07T10:05:02;39.88;;;13.70;;
34489;SDS011;20730;49.372;7.324;2023-12-07T10:07:34;41.53;;;12.63;;
34489;SDS011;20730;49.372;7.324;2023-12-07T10:10:03;34.80;;;15.30;;
34489;SDS011;20730;49.372;7.324;2023-12-07T10:12:31;37.53;;;15.93;;
34489;SDS011;20730;49.372;7.324;2023-12-07T10:15:01;43.78;;;14.25;;
34489;SDS011;20730;49.372;7.324;2023-12-07T10:20:18;29.25;;;14.05;;
34489;SDS011;20730;49.372;7.324;2023-12-07T10:23:03;30.50;;;14.82;;
34489;SDS011;20730;49.372;7.324;2023-12-07T10:25:37;102.00;;;15.90;;
34489;SDS011;20730;49.372;7.324;2023-12-07T10:28:05;125.93;;;17.75;;
34489;SDS011;20730;49.372;7.324;2023-12-07T10:30:34;49.15;;;15.70;;
34489;SDS011;20730;49.372;7.324;2023-12-07T10:33:04;102.35;;;14.48;;
34489;SDS011;20730;49.372;7.324;2023-12-07T10:35:35;111.32;;;18.70;;
34489;SDS011;20730;49.372;7.324;2023-12-07T10:38:04;76.10;;;16.33;;
34489;SDS011;20730;49.372;7.324;2023-12-07T10:40:31;70.55;;;16.45;;
34489;SDS011;20730;49.372;7.324;2023-12-07T10:42:58;38.05;;;15.32;;
34489;SDS011;20730;49.372;7.324;2023-12-07T10:45:25;148.02;;;18.35;;
34489;SDS011;20730;49.372;7.324;2023-12-07T10:48:02;62.28;;;18.42;;
34489;SDS011;20730;49.372;7.324;2023-12-07T10:50:42;82.32;;;17.27;;
34489;SDS011;20730;49.372;7.324;2023-12-07T10:53:13;52.80;;;16.30;;
34489;SDS011;20730;49.372;7.324;2023-12-07T10:55:47;72.32;;;18.30;;
34489;SDS011;20730;49.372;7.324;2023-12-07T10:58:21;60.58;;;17.98;;
34489;SDS011;20730;49.372;7.324;2023-12-07T11:00:52;66.75;;;18.35;;
34489;SDS011;20730;49.372;7.324;2023-12-07T11:03:19;86.40;;;20.05;;
34489;SDS011;20730;49.372;7.324;2023-12-07T11:05:48;52.00;;;18.95;;
34489;SDS011;20730;49.372;7.324;2023-12-07T11:08:25;43.88;;;17.92;;
34489;SDS011;20730;49.372;7.324;2023-12-07T11:13:29;38.58;;;19.92;;
34489;SDS011;20730;49.372;7.324;2023-12-07T11:15:57;45.85;;;20.30;;
34489;SDS011;20730;49.372;7.324;2023-12-07T11:18:24;40.30;;;18.63;;
34489;SDS011;20730;49.372;7.324;2023-12-07T11:20:52;43.30;;;21.52;;
34489;SDS011;20730;49.372;7.324;2023-12-07T11:23:21;36.03;;;15.68;;
34489;SDS011;20730;49.372;7.324;2023-12-07T11:25:48;35.17;;;16.35;;
34489;SDS011;20730;49.372;7.324;2023-12-07T11:28:17;38.17;;;18.33;;
34489;SDS011;20730;49.372;7.324;2023-12-07T11:30:44;31.85;;;14.43;;
34489;SDS011;20730;49.372;7.324;2023-12-07T11:33:12;31.77;;;15.88;;
34489;SDS011;20730;49.372;7.324;2023-12-07T11:38:29;31.10;;;16.67;;
34489;SDS011;20730;49.372;7.324;2023-12-07T11:40:56;27.95;;;15.88;;
34489;SDS011;20730;49.372;7.324;2023-12-07T11:45:59;32.72;;;15.95;;
34489;SDS011;20730;49.372;7.324;2023-12-07T11:48:26;35.15;;;19.33;;
34489;SDS011;20730;49.372;7.324;2023-12-07T11:50:56;37.90;;;17.70;;
34489;SDS011;20730;49.372;7.324;2023-12-07T11:53:28;30.48;;;15.77;;
34489;SDS011;20730;49.372;7.324;2023-12-07T11:55:58;32.95;;;16.77;;
34489;SDS011;20730;49.372;7.324;2023-12-07T11:58:29;32.53;;;15.85;;
34489;SDS011;20730;49.372;7.324;2023-12-07T12:00:59;32.08;;;15.35;;
34489;SDS011;20730;49.372;7.324;2023-12-07T12:03:27;29.02;;;14.95;;
34489;SDS011;20730;49.372;7.324;2023-12-07T12:05:55;25.40;;;13.85;;
34489;SDS011;20730;49.372;7.324;2023-12-07T12:08:22;26.02;;;15.05;;
34489;SDS011;20730;49.372;7.324;2023-12-07T12:10:52;25.75;;;14.40;;
34489;SDS011;20730;49.372;7.324;2023-12-07T12:13:29;25.90;;;12.35;;
34489;SDS011;20730;49.372;7.324;2023-12-07T12:16:01;27.85;;;15.00;;
34489;SDS011;20730;49.372;7.324;2023-12-07T12:18:32;23.25;;;13.25;;
34489;SDS011;20730;49.372;7.324;2023-12-07T12:21:00;33.53;;;15.23;;
34489;SDS011;20730;49.372;7.324;2023-12-07T12:23:27;24.40;;;13.13;;
34489;SDS011;20730;49.372;7.324;2023-12-07T12:25:55;24.95;;;12.60;;
34489;SDS011;20730;49.372;7.324;2023-12-07T12:28:21;25.00;;;12.38;;
34489;SDS011;20730;49.372;7.324;2023-12-07T12:30:50;22.38;;;13.02;;
34489;SDS011;20730;49.372;7.324;2023-12-07T12:33:18;19.40;;;12.35;;
34489;SDS011;20730;49.372;7.324;2023-12-07T12:35:44;26.85;;;13.30;;
34489;SDS011;20730;49.372;7.324;2023-12-07T12:38:11;20.52;;;12.63;;
34489;SDS011;20730;49.372;7.324;2023-12-07T12:40:52;22.42;;;11.90;;
34489;SDS011;20730;49.372;7.324;2023-12-07T12:43:20;20.75;;;12.27;;
34489;SDS011;20730;49.372;7.324;2023-12-07T12:45:48;21.85;;;12.10;;
34489;SDS011;20730;49.372;7.324;2023-12-07T12:48:31;23.55;;;12.60;;
34489;SDS011;20730;49.372;7.324;2023-12-07T12:51:06;25.42;;;14.20;;
34489;SDS011;20730;49.372;7.324;2023-12-07T12:53:33;24.92;;;13.93;;
34489;SDS011;20730;49.372;7.324;2023-12-07T12:56:00;22.52;;;13.60;;
34489;SDS011;20730;49.372;7.324;2023-12-07T12:58:27;23.85;;;13.02;;
34489;SDS011;20730;49.372;7.324;2023-12-07T13:00:54;25.35;;;13.63;;
34489;SDS011;20730;49.372;7.324;2023-12-07T13:03:21;24.90;;;13.32;;
34489;SDS011;20730;49.372;7.324;2023-12-07T13:05:47;27.23;;;14.25;;
34489;SDS011;20730;49.372;7.324;2023-12-07T13:08:15;23.33;;;13.75;;
34489;SDS011;20730;49.372;7.324;2023-12-07T13:10:42;24.45;;;13.52;;
34489;SDS011;20730;49.372;7.324;2023-12-07T13:13:09;21.73;;;11.93;;
34489;SDS011;20730;49.372;7.324;2023-12-07T13:15:36;22.40;;;12.68;;
34489;SDS011;20730;49.372;7.324;2023-12-07T13:18:03;27.45;;;14.50;;
34489;SDS011;20730;49.372;7.324;2023-12-07T13:20:33;23.35;;;14.20;;
34489;SDS011;20730;49.372;7.324;2023-12-07T13:23:19;28.10;;;13.63;;
34489;SDS011;20730;49.372;7.324;2023-12-07T13:25:47;25.92;;;16.52;;
34489;SDS011;20730;49.372;7.324;2023-12-07T13:28:14;28.02;;;16.20;;
34489;SDS011;20730;49.372;7.324;2023-12-07T13:30:41;25.67;;;14.60;;
34489;SDS011;20730;49.372;7.324;2023-12-07T13:33:08;28.02;;;16.67;;
34489;SDS011;20730;49.372;7.324;2023-12-07T13:35:50;28.10;;;15.23;;
34489;SDS011;20730;49.372;7.324;2023-12-07T13:38:19;26.83;;;14.35;;
34489;SDS011;20730;49.372;7.324;2023-12-07T13:40:47;30.83;;;15.23;;
34489;SDS011;20730;49.372;7.324;2023-12-07T13:43:13;31.02;;;17.20;;
34489;SDS011;20730;49.372;7.324;2023-12-07T13:45:43;32.00;;;15.95;;
34489;SDS011;20730;49.372;7.324;2023-12-07T13:48:10;41.08;;;20.30;;
34489;SDS011;20730;49.372;7.324;2023-12-07T13:50:37;37.38;;;21.52;;
34489;SDS011;20730;49.372;7.324;2023-12-07T13:53:03;33.50;;;18.75;;
34489;SDS011;20730;49.372;7.324;2023-12-07T13:55:30;35.58;;;19.05;;
34489;SDS011;20730;49.372;7.324;2023-12-07T13:57:57;36.50;;;18.73;;
34489;SDS011;20730;49.372;7.324;2023-12-07T14:00:25;34.20;;;18.70;;
34489;SDS011;20730;49.372;7.324;2023-12-07T14:02:52;39.55;;;19.08;;
34489;SDS011;20730;49.372;7.324;2023-12-07T14:05:18;37.55;;;20.10;;
34489;SDS011;20730;49.372;7.324;2023-12-07T14:07:48;34.55;;;18.73;;
34489;SDS011;20730;49.372;7.324;2023-12-07T14:10:16;36.10;;;19.58;;
34489;SDS011;20730;49.372;7.324;2023-12-07T14:12:43;38.53;;;16.65;;
34489;SDS011;20730;49.372;7.324;2023-12-07T14:15:10;36.80;;;18.50;;
34489;SDS011;20730;49.372;7.324;2023-12-07T14:17:37;30.52;;;17.10;;
34489;SDS011;20730;49.372;7.324;2023-12-07T14:20:16;38.75;;;18.77;;
34489;SDS011;20730;49.372;7.324;2023-12-07T14:23:02;34.00;;;19.40;;
34489;SDS011;20730;49.372;7.324;2023-12-07T14:25:31;41.22;;;17.75;;
34489;SDS011;20730;49.372;7.324;2023-12-07T14:27:58;35.92;;;18.58;;
34489;SDS011;20730;49.372;7.324;2023-12-07T14:30:25;36.22;;;17.92;;
34489;SDS011;20730;49.372;7.324;2023-12-07T14:32:51;34.15;;;15.85;;
34489;SDS011;20730;49.372;7.324;2023-12-07T14:35:19;30.33;;;16.55;;
34489;SDS011;20730;49.372;7.324;2023-12-07T14:37:47;33.20;;;16.48;;